Flight Track Log - Related Links

Times and Time Zones

All times are in EST time to prevent confusion due to time zone crossing. See the UAL5904 flight status page for this flight to view local times or setup timezone preferences in your user account.

Time Position Orientation Groundspeed Altitude Reporting Facility
EST Latitude Longitude Course Direction KTS MPH feet Rate Location/Type
Sat 10:56:16 AM 40.0064 -82.9544 275° West 146 168 3,000  Level Indianapolis Center
Sat 10:56:33 AM 40.0081 -82.9733 277° West 162 186 3,500 1,846 Climbing Indianapolis Center
Sat 10:57:34 AM 40.0133 -83.0536 275° West 197 227 5,400 2,164 Climbing Indianapolis Center
Sat 10:58:00 AM 40.0633 -83.1832 285° West  Level FlightAware Approximate
Sat 10:58:35 AM 40.0331 -83.1367 287° West 242 278 7,900  Level Indianapolis Center
Sat 10:59:00 AM 40.0889 -83.2833 294° West  Level FlightAware Approximate
Sat 10:59:37 AM 40.0547 -83.2175 289° West 240 276 10,100  Level Indianapolis Center
Sat 11:00:00 AM 40.1202 -83.3818 287° West  Level FlightAware Approximate
Sat 11:00:38 AM 40.0803 -83.3089 290° West 260 299 11,200  Level Indianapolis Center
Sat 11:01:39 AM 40.1250 -83.4039 302° West 301 346 12,300 1,180 Climbing Indianapolis Center
Sat 11:02:40 AM 40.1728 -83.5019 303° West 318 366 13,600 1,415 Climbing Indianapolis Center
Sat 11:03:42 AM 40.2322 -83.6219 303° West 326 375 15,200 1,463 Climbing Indianapolis Center
Sat 11:04:43 AM 40.2814 -83.7236 302° West 327 376 16,600 1,328 Climbing Indianapolis Center
Sat 11:05:44 AM 40.3297 -83.8225 303° West 327 376 17,900 1,328 Climbing Indianapolis Center
Sat 11:06:45 AM 40.3775 -83.9211 302° West 326 375 19,300 1,366 Climbing Indianapolis Center
Sat 11:07:47 AM 40.4253 -84.0189 303° West 323 372 20,700 1,366 Climbing Indianapolis Center
Sat 11:08:48 AM 40.4736 -84.1200 302° West 323 372 22,100 1,377 Climbing Indianapolis Center
Sat 11:09:49 AM 40.5208 -84.2167 303° West 321 369 23,500 1,415 Climbing Indianapolis Center
Sat 11:10:51 AM 40.5667 -84.3136 302° West 318 366 25,000 1,220 Climbing Indianapolis Center
Sat 11:11:52 AM 40.6200 -84.4267 302° West 307 353 26,000 488 Climbing Indianapolis Center
Sat 11:12:54 AM 40.6681 -84.5272 302° West 318 366 26,000  Level Indianapolis Center
Sat 11:13:55 AM 40.7194 -84.6336 303° West 337 388 26,000  Level Indianapolis Center
Sat 11:14:51 AM 40.7658 -84.7303 302° West 347 399 26,000  Level Chicago Center
Sat 11:15:53 AM 40.8183 -84.8425 302° West 356 410 26,000  Level Chicago Center
Sat 11:16:54 AM 40.8642 -84.9597 297° West 359 413 26,000  Level Chicago Center
Sat 11:17:56 AM 40.9114 -85.0781 298° West 362 417 26,000  Level Chicago Center
Sat 11:18:57 AM 40.9569 -85.1956 297° West 361 415 26,000  Level Chicago Center
Sat 11:19:59 AM 41.0144 -85.3389 298° West 365 420 26,000 -387 Level Chicago Center
Sat 11:21:01 AM 41.0614 -85.4597 297° West 368 423 25,200 -488 Descending Chicago Center
Sat 11:22:02 AM 41.1081 -85.5808 297° West 368 423 25,000 -98 Descending Chicago Center
Sat 11:23:04 AM 41.1553 -85.7025 297° West 368 423 25,000  Level Chicago Center
Sat 11:24:05 AM 41.2025 -85.8217 298° West 366 421 25,000 -49 Level Chicago Center
Sat 11:25:07 AM 41.2464 -85.9403 296° West 357 411 24,900 -488 Descending Chicago Center
Sat 11:26:08 AM 41.2861 -86.0572 294° West 347 399 24,000 -1,395 Descending Chicago Center
Sat 11:28:12 AM 41.3636 -86.2869 294° West 346 398 20,600 -1,881 Descending Chicago Center
Sat 11:29:13 AM 41.4328 -86.4056 308° West 338 389 18,200 -2,146 Descending Chicago Center
Sat 11:30:15 AM 41.4892 -86.5031 308° West 334 384 16,200 -1,935 Descending Chicago Center
Sat 11:31:17 AM 41.5408 -86.5922 308° West 308 354 14,200 -1,707 Descending Chicago Center
Sat 11:32:18 AM 41.5914 -86.6808 307° West 301 346 12,700 -1,073 Descending Chicago Center
Sat 11:33:20 AM 41.6531 -86.7808 310° West 319 367 12,000 -339 Descending Chicago Center
Sat 11:34:22 AM 41.7447 -86.8050 349° North 338 389 12,000  Level Chicago Center
Sat 11:35:23 AM 41.8456 -86.8261 351° North 342 394 12,000 -488 Level Chicago Center
Sat 11:36:25 AM 41.8953 -86.9153 307° West 313 360 11,000 -968 Descending Chicago Center
Sat 11:37:27 AM 41.9233 -87.0231 289° West 307 353 10,000 -780 Descending Chicago Center
Sat 11:38:28 AM 41.9489 -87.1208 289° West 253 291 9,400 -976 Descending Chicago Center
Sat 11:39:30 AM 41.9639 -87.2044 284° West 233 268 8,000 -1,171 Descending Chicago Center
Sat 11:40:31 AM 41.9647 -87.2867 271° West 206 237 7,000 -488 Descending Chicago Center
Sat 11:41:33 AM 41.9653 -87.3603 271° West 199 229 7,000  Level Chicago Center
Sat 11:42:35 AM 41.9647 -87.4347 269° West 200 230 7,000 -195 Level Chicago Center
Sat 11:43:36 AM 41.9656 -87.5131 271° West 195 224 6,600 -829 Descending Chicago Center
Sat 11:44:38 AM 41.9650 -87.5894 269° West 203 234 5,300 -1,073 Descending Chicago Center
Sat 11:45:39 AM 41.9656 -87.6550 271° West 180 207 4,400 -1,024 Descending Chicago Center
Sat 11:46:41 AM 41.9647 -87.7278 269° West 182 209 3,200 -1,122 Descending Chicago Center
Sat 11:47:42 AM 41.9653 -87.7958 271° West 183 211 2,100 -878 Descending Chicago Center
Sat 11:48:44 AM 41.9650 -87.8458 270° West 139 160 1,400 -683 Descending Chicago Center
Sat 11:49:45 AM 41.9650 -87.8883 270° West 136 157 700 -689 Descending Chicago Center

Login

Don't have an account? Register now (free) for customized features, flight alerts, and more!